createdAt,value
2023-01-12T00:03:21.023Z,3.47
2023-01-12T00:08:22.405Z,4.47
2023-01-12T00:13:23.788Z,4.90
2023-01-12T00:18:25.159Z,3.58
2023-01-12T00:23:26.521Z,3.55
2023-01-12T00:28:29.120Z,3.67
2023-01-12T00:33:30.575Z,3.88
2023-01-12T00:38:34.084Z,4.05
2023-01-12T00:43:54.416Z,4.93
2023-01-12T00:48:55.824Z,3.78
2023-01-12T00:53:57.217Z,3.92
2023-01-12T00:59:17.287Z,4.97
2023-01-12T01:04:18.752Z,5.25
2023-01-12T01:09:20.728Z,4.90
2023-01-12T01:14:22.156Z,3.42
2023-01-12T01:19:23.662Z,4.75
2023-01-12T01:24:25.103Z,3.47
2023-01-12T01:29:26.510Z,4.35
2023-01-12T01:34:27.875Z,4.90
2023-01-12T01:39:29.246Z,4.10
2023-01-12T01:44:30.666Z,3.65
2023-01-12T01:49:34.274Z,3.92
2023-01-12T01:54:37.628Z,4.07
2023-01-12T01:59:42.644Z,5.20
2023-01-12T02:04:44.543Z,4.65
2023-01-12T02:09:45.934Z,4.07
2023-01-12T02:15:06.839Z,4.57
2023-01-12T02:20:26.834Z,3.95
2023-01-12T02:25:47.169Z,4.13
2023-01-12T02:31:07.405Z,4.13
2023-01-12T02:41:18.677Z,4.93
2023-01-12T02:46:22.649Z,4.95
2023-01-12T02:51:29.193Z,4.50
2023-01-12T02:56:33.230Z,4.68
2023-01-12T03:01:36.575Z,3.97
2023-01-12T03:06:47.120Z,4.18
2023-01-12T03:11:50.765Z,3.47
2023-01-12T03:16:54.335Z,3.78
2023-01-12T03:21:58.129Z,4.32
2023-01-12T03:27:01.896Z,3.63
2023-01-12T03:32:03.451Z,3.47
2023-01-12T03:37:07.488Z,2.55
2023-01-12T03:42:08.821Z,2.92
2023-01-12T03:47:13.702Z,3.40
2023-01-12T03:52:16.567Z,3.22
2023-01-12T03:57:19.957Z,3.17
2023-01-12T04:02:21.989Z,3.20
2023-01-12T04:07:23.744Z,3.40
2023-01-12T04:12:25.216Z,2.50
2023-01-12T04:17:28.318Z,2.47
2023-01-12T04:22:44.777Z,2.45
2023-01-12T04:27:50.463Z,2.58
2023-01-12T04:32:52.396Z,2.80
2023-01-12T04:37:54.061Z,2.50
2023-01-12T04:43:01.802Z,2.40
2023-01-12T04:48:03.550Z,2.60
2023-01-12T04:53:05.994Z,2.53
2023-01-12T04:58:07.687Z,2.22
2023-01-12T05:03:11.451Z,1.90
2023-01-12T05:08:31.372Z,1.55
2023-01-12T05:13:32.789Z,1.83
2023-01-12T05:18:34.224Z,1.30
2023-01-12T05:23:35.678Z,1.27
2023-01-12T05:28:37.179Z,1.20
2023-01-12T05:33:39.552Z,1.30
2023-01-12T05:38:40.989Z,2.13
2023-01-12T05:43:51.820Z,1.63
2023-01-12T05:48:53.971Z,2.42
2023-01-12T05:53:55.420Z,3.88
2023-01-12T05:58:58.613Z,4.57
2023-01-12T06:04:00.694Z,3.45
2023-01-12T06:09:02.236Z,3.88
2023-01-12T06:14:04.012Z,3.88
2023-01-12T06:19:05.660Z,4.50
2023-01-12T06:24:07.502Z,4.57
2023-01-12T06:29:08.903Z,4.68
2023-01-12T06:34:10.360Z,4.70
2023-01-12T06:39:12.326Z,5.38
2023-01-12T06:44:13.777Z,5.07
2023-01-12T06:49:16.700Z,4.53
2023-01-12T06:54:18.869Z,5.13
2023-01-12T06:59:20.419Z,5.28
2023-01-12T07:04:21.955Z,5.97
2023-01-12T07:09:23.395Z,5.13
2023-01-12T07:14:25.265Z,5.18
2023-01-12T07:19:26.763Z,5.28
2023-01-12T07:24:28.140Z,4.75
2023-01-12T07:29:29.616Z,4.78
2023-01-12T07:34:31.272Z,4.53
2023-01-12T07:39:32.670Z,4.97
2023-01-12T07:44:34.057Z,4.75
2023-01-12T07:49:35.482Z,5.05
2023-01-12T07:54:37.698Z,5.28
2023-01-12T07:59:39.527Z,4.75
2023-01-12T08:04:40.920Z,4.18
2023-01-12T08:09:42.335Z,4.75
2023-01-12T08:14:43.975Z,4.35
2023-01-12T08:19:50.922Z,3.22
2023-01-12T08:24:56.342Z,4.03
2023-01-12T08:29:59.698Z,4.32
2023-01-12T08:35:02.064Z,4.88
2023-01-12T08:40:04.916Z,4.18
2023-01-12T08:45:09.281Z,4.78
2023-01-12T08:50:11.093Z,3.80
2023-01-12T08:55:12.598Z,3.33
2023-01-12T09:00:14.281Z,3.45
2023-01-12T09:05:16.593Z,3.35
2023-01-12T09:10:18.032Z,3.70
2023-01-12T09:15:19.428Z,4.32
2023-01-12T09:20:21.317Z,4.70
2023-01-12T09:25:22.699Z,3.33
2023-01-12T09:30:36.443Z,3.10
2023-01-12T09:35:37.866Z,3.47
2023-01-12T09:40:42.249Z,3.10
2023-01-12T09:46:02.714Z,4.05
2023-01-12T09:51:08.025Z,4.53
2023-01-12T09:56:18.308Z,4.75
2023-01-12T10:01:29.112Z,4.05
2023-01-12T10:06:31.500Z,3.45
2023-01-12T10:11:51.093Z,4.70
2023-01-12T10:16:58.886Z,4.28
2023-01-12T10:22:03.986Z,4.13
2023-01-12T10:27:05.406Z,4.38
2023-01-12T10:32:08.878Z,3.97
2023-01-12T10:37:11.123Z,3.22
2023-01-12T10:42:32.504Z,2.90
2023-01-12T10:47:33.930Z,3.40
2023-01-12T10:52:38.864Z,3.17
2023-01-12T10:57:42.149Z,4.43
2023-01-12T11:02:44.388Z,3.50
2023-01-12T11:07:49.593Z,4.30
2023-01-12T11:12:56.276Z,4.70
2023-01-12T11:18:16.336Z,3.17
2023-01-12T11:23:27.086Z,4.57
2023-01-12T11:28:31.147Z,4.10
2023-01-12T11:33:33.150Z,3.92
2023-01-12T11:38:36.771Z,3.95
2023-01-12T11:43:55.979Z,4.07
2023-01-12T11:49:01.830Z,4.50
2023-01-12T11:54:06.026Z,4.38
2023-01-12T11:59:08.248Z,4.22
2023-01-12T12:04:12.451Z,4.35
2023-01-12T12:09:31.777Z,3.55
2023-01-12T12:14:41.175Z,4.53
2023-01-12T12:19:53.966Z,5.47
2023-01-12T12:25:13.683Z,5.03
2023-01-12T12:30:18.151Z,5.40
2023-01-12T12:35:25.758Z,4.82
2023-01-12T12:41:05.706Z,4.88
2023-01-12T12:46:31.366Z,5.20
2023-01-12T12:51:34.677Z,4.38
2023-01-12T12:56:36.769Z,3.88
2023-01-12T13:01:42.587Z,4.72
2023-01-12T13:06:48.246Z,4.00
2023-01-12T13:11:54.157Z,3.65
2023-01-12T13:16:57.381Z,3.55
2023-01-12T13:21:59.633Z,3.20
2023-01-12T13:27:01.921Z,2.90
2023-01-12T13:32:22.051Z,3.47
2023-01-12T13:42:43.206Z,3.78
2023-01-12T13:47:46.103Z,3.47
2023-01-12T13:52:58.100Z,3.72
2023-01-12T13:58:15.227Z,2.60
2023-01-12T14:03:23.136Z,3.00
2023-01-12T14:08:32.248Z,3.83
2023-01-12T14:13:35.936Z,3.72
2023-01-12T14:18:44.750Z,3.00
2023-01-12T14:23:46.146Z,3.13
2023-01-12T14:28:48.515Z,3.05
2023-01-12T14:33:51.599Z,3.15
2023-01-12T14:38:53.399Z,2.72
2023-01-12T14:44:13.697Z,2.70
2023-01-12T14:49:41.413Z,2.75
2023-01-12T14:54:43.182Z,2.58
2023-01-12T14:59:46.160Z,2.80
2023-01-12T15:04:50.358Z,2.13
2023-01-12T15:10:12.002Z,2.83
2023-01-12T15:15:21.297Z,3.03
2023-01-12T15:20:48.676Z,2.95
2023-01-12T15:25:50.164Z,2.15
2023-01-12T15:30:52.921Z,2.30
2023-01-12T15:35:54.480Z,2.58
2023-01-12T15:40:55.901Z,1.50
2023-01-12T15:45:57.393Z,1.45
2023-01-12T15:50:58.842Z,1.45
2023-01-12T15:56:02.090Z,1.58
2023-01-12T16:01:06.885Z,1.58
2023-01-12T16:06:08.427Z,1.50
2023-01-12T16:11:13.614Z,1.42
2023-01-12T16:16:16.487Z,1.60
2023-01-12T16:21:19.280Z,1.50
2023-01-12T16:26:20.681Z,1.65
2023-01-12T16:31:22.185Z,1.63
2023-01-12T16:36:25.212Z,1.83
2023-01-12T16:41:26.841Z,1.73
2023-01-12T16:46:28.255Z,2.08
2023-01-12T16:51:29.706Z,2.20
2023-01-12T16:56:31.137Z,1.52
2023-01-12T17:01:32.657Z,1.67
2023-01-12T17:06:34.251Z,1.90
2023-01-12T17:11:50.744Z,1.63
2023-01-12T17:16:53.467Z,2.50
2023-01-12T17:21:56.475Z,2.78
2023-01-12T17:26:58.080Z,2.45
2023-01-12T17:32:04.348Z,2.88
2023-01-12T17:37:08.610Z,2.30
2023-01-12T17:42:30.345Z,2.75
2023-01-12T17:47:31.789Z,2.58
2023-01-12T17:52:33.253Z,3.00
2023-01-12T17:57:36.695Z,3.00
2023-01-12T18:02:38.126Z,3.08
2023-01-12T18:07:41.961Z,3.28
2023-01-12T18:12:43.590Z,2.80
2023-01-12T18:17:45.072Z,2.92
2023-01-12T18:22:46.980Z,3.33
2023-01-12T18:27:48.405Z,2.65
2023-01-12T18:32:49.769Z,4.03
2023-01-12T18:37:51.175Z,3.88
2023-01-12T18:42:54.479Z,3.55
2023-01-12T18:48:14.253Z,3.33
2023-01-12T18:53:33.526Z,3.20
2023-01-12T18:58:35.443Z,3.70
2023-01-12T19:03:38.180Z,3.72
2023-01-12T19:08:58.416Z,3.65
2023-01-12T19:14:18.281Z,3.33
2023-01-12T19:19:25.127Z,3.10
2023-01-12T19:25:05.244Z,4.00
2023-01-12T19:30:06.996Z,3.33
2023-01-12T19:35:11.433Z,3.05
2023-01-12T19:40:33.181Z,3.38
2023-01-12T19:45:36.912Z,2.53
2023-01-12T19:50:39.524Z,2.92
2023-01-12T19:55:41.772Z,3.22
2023-01-12T20:00:46.206Z,3.65
2023-01-12T20:05:48.667Z,2.53
2023-01-12T20:10:54.262Z,3.33
2023-01-12T20:15:57.712Z,4.10
2023-01-12T20:21:01.959Z,2.88
2023-01-12T20:26:07.862Z,3.83
2023-01-12T20:31:13.276Z,4.18
2023-01-12T20:36:15.654Z,3.67
2023-01-12T20:41:17.490Z,3.65
2023-01-12T20:46:18.897Z,3.13
2023-01-12T20:51:21.500Z,3.53
2023-01-12T20:56:24.654Z,2.65
2023-01-12T21:01:26.264Z,3.17
2023-01-12T21:06:27.894Z,2.45
2023-01-12T21:11:29.620Z,2.80
2023-01-12T21:16:31.442Z,3.75
2023-01-12T21:21:33.041Z,3.30
2023-01-12T21:26:34.442Z,3.42
2023-01-12T21:31:35.942Z,3.60
2023-01-12T21:36:37.378Z,3.80
2023-01-12T21:41:57.287Z,3.10
2023-01-12T21:46:58.682Z,3.25
2023-01-12T21:52:00.230Z,2.85
2023-01-12T21:57:01.710Z,3.78
2023-01-12T22:02:03.238Z,3.95
2023-01-12T22:07:04.765Z,3.55
2023-01-12T22:12:06.341Z,4.95
2023-01-12T22:17:07.882Z,4.30
2023-01-12T22:22:09.349Z,4.55
2023-01-12T22:27:11.307Z,3.85
2023-01-12T22:32:12.719Z,4.90
2023-01-12T22:37:14.161Z,4.85
2023-01-12T22:42:15.549Z,5.50
2023-01-12T22:47:16.965Z,6.00
2023-01-12T22:52:19.462Z,4.75
2023-01-12T22:57:20.840Z,5.20
2023-01-12T23:02:40.921Z,5.63
2023-01-12T23:13:03.634Z,5.10
2023-01-12T23:18:05.995Z,5.65
2023-01-12T23:23:08.577Z,5.53
2023-01-12T23:28:10.849Z,5.70
2023-01-12T23:33:12.309Z,6.88
2023-01-12T23:38:15.995Z,5.22
2023-01-12T23:43:17.757Z,7.28
2023-01-12T23:48:20.421Z,6.47
2023-01-12T23:53:22.030Z,5.75
2023-01-12T23:58:24.057Z,5.50
